Qumarleb, China
Current Conditions -  °F | °C
As of 8:00 PM on Monday 22 Dec 2014 (Local Time) from ZLLL Reporting Station
Smoke Smoke  
Wind Chill: 23°   Ceiling: Unl
Heat Index: 23°   Visibility: 2.5mi
Dew Point:   Wind: 0mph
Humidity: 50%   Direction: NA
Pressure: 30.12"   Gusts: NA
Location:  34.13°N, 95.78°E
Report Text: ZLLL 221200Z 00000MPS 4000 FU NSC M05/M14 Q1020 NOSIG
Loading
Personal Weather Stations






























Interactive Weather Map New forecast layout! Learn more

10-Day Weather Forecast

Advertisements
Track Severe Weather on mobile